Time;durP1;ratioP1;P1;durP2;ratioP2;P2;SDS_P1;SDS_P2;PMS_P1;PMS_P2;Temp;Humidity;BMP_temperature;BMP_pressure;BME280_temperature;BME280_humidity;BME280_pressure;Samples;Min_cycle;Max_cycle;Signal;HPM_P1;HPM_P2
2021/01/23 13:47:02;;;;;;;;;;;;;;;23.43;40.84;98710.50;4983215;28;85765;-70
2021/01/23 13:49:27;;;;;;;;;;;;;;;-144.09;100.00;58447.69;4982241;28;11734;-73
2021/01/23 13:59:28;;;;;;;;;;;;;;;23.35;42.07;98703.03;5007448;27;12331;-77
2021/01/23 14:01:54;;;;;;;;;;;;;;;23.80;41.01;98698.47;4988134;28;12018;-75
2021/01/23 14:04:19;;;;;;;;;;;;;;;23.90;41.67;98692.50;4984063;28;12285;-74
2021/01/23 14:06:45;;;;;;;;;;;;;;;23.76;40.38;98689.03;4975634;28;7417;-73
2021/01/23 14:09:10;;;;;;;;;;;;;;;23.76;41.85;98689.88;4988182;28;6833;-73
2021/01/23 14:28:58;;;;;;;;;;;;;;;17.89;45.37;98682.97;5034192;27;7285;-75
2021/01/23 14:31:23;;;;;;;;;;;;;;;17.28;49.09;98680.03;5021557;28;7004;-76
2021/01/23 14:33:49;;;;;;;;;;;;;;;17.15;50.27;98684.00;5027280;28;7178;-76
2021/01/23 14:36:14;;;;;;;;;;;;;;;17.07;51.19;98681.69;5024519;28;7216;-76
2021/01/23 14:38:40;;;;;;;;;;;;;;;16.97;53.37;98680.28;5022896;28;6776;-75
2021/01/23 14:41:09;;;;;;;;;;;;;;;14.85;51.62;98677.28;5051951;28;7004;-76
2021/01/23 14:43:35;;;;;;;;;;;;;;;14.36;53.04;98680.28;5018420;28;7345;-76
2021/01/23 14:46:00;;;;;;;;;;;;;;;13.96;53.97;98677.78;5023759;28;7154;-74
2021/01/23 14:48:26;;;;;;;;;;;;;;;13.69;52.15;98679.28;5019085;28;7152;-77
2021/01/23 14:50:51;;;;;;;;;;;;;;;13.83;53.71;98685.03;5019788;28;7125;-75
2021/01/23 14:53:17;;;;;;;;;;;;;;;13.47;53.94;98680.63;5023408;28;6859;-74
2021/01/23 14:55:42;;;;;;;;;;;;;;;13.38;51.53;98687.75;5022069;28;7188;-74
2021/01/23 14:58:08;;;;;;;;;;;;;;;13.16;53.20;98682.97;5038092;28;8134;-75
2021/01/23 15:00:33;;;;;;;;;;;;;;;13.25;55.65;98681.09;5023733;28;7572;-75
2021/01/23 15:02:59;;;;;;;;;;;;;;;13.17;51.70;98679.47;5024935;28;6829;-74
2021/01/23 15:05:24;;;;;;;;;;;;;;;12.80;52.79;98665.41;5023177;28;6964;-72
2021/01/23 15:07:50;;;;;;;;;;;;;;;13.05;52.92;98673.63;5024724;28;7292;-75
2021/01/23 15:10:15;;;;;;;;;;;;;;;12.70;51.86;98668.25;5022705;28;6823;-74
2021/01/23 15:12:41;;;;;;;;;;;;;;;12.52;52.66;98673.78;5022879;28;6825;-74
2021/01/23 15:15:07;;;;;;;;;;;;;;;12.51;48.95;98672.06;5017772;28;7354;-74
2021/01/23 15:17:33;;;;;;;;;;;;;;;12.17;49.00;98673.47;5038899;28;6799;-73
2021/01/23 15:19:59;;;;;;;;;;;;;;;12.23;49.24;98669.94;5022064;28;8284;-74
2021/01/23 15:22:24;;;;;;;;;;;;;;;11.76;48.87;98668.03;5024221;28;6866;-74
2021/01/23 15:24:50;;;;;;;;;;;;;;;11.74;47.28;98667.19;5025856;28;7666;-75
2021/01/23 15:27:15;;;;;;;;;;;;;;;11.37;48.31;98670.31;5024827;28;6910;-73
2021/01/23 15:29:41;;;;;;;;;;;;;;;12.26;46.40;98662.09;5039231;28;7161;-76
2021/01/23 15:32:07;;;;;;;;;;;;;;;11.89;46.33;98667.00;5039294;28;7384;-74
2021/01/23 15:34:32;;;;;;;;;;;;;;;11.76;47.01;98665.44;5020088;28;7239;-74
2021/01/23 15:36:58;;;;;;;;;;;;;;;11.40;47.59;98665.06;5024136;28;7038;-74
2021/01/23 15:39:23;;;;;;;;;;;;;;;11.37;47.16;98664.25;5013915;28;7365;-74
2021/01/23 15:41:49;;;;;;;;;;;;;;;11.09;47.98;98664.63;5025741;28;6784;-74
2021/01/23 15:44:14;;;;;;;;;;;;;;;11.04;47.80;98663.81;5036281;28;7135;-73
2021/01/23 15:46:40;;;;;;;;;;;;;;;10.80;48.31;98653.69;5007421;28;7299;-76
2021/01/23 15:49:07;;;;;;;;;;;;;;;10.79;48.15;98660.63;5010247;28;6987;-75
2021/01/23 15:51:34;;;;;;;;;;;;;;;10.79;48.14;98667.53;5009498;28;6812;-75
2021/01/23 15:53:59;;;;;;;;;;;;;;;10.68;49.21;98664.22;5010698;28;7403;-75
2021/01/23 15:56:25;;;;;;;;;;;;;;;10.62;48.78;98668.63;5010991;28;7658;-74
2021/01/23 15:58:50;;;;;;;;;;;;;;;10.75;48.82;98665.88;5008420;28;6792;-71
2021/01/23 16:01:16;;;;;;;;;;;;;;;10.39;49.59;98670.53;5011198;28;7436;-73
2021/01/23 16:03:42;;;;;;;;;;;;;;;10.39;49.49;98673.13;5009723;28;6775;-74
2021/01/23 16:06:08;;;;;;;;;;;;;;;10.25;49.61;98669.81;5010401;28;7511;-75
2021/01/23 16:08:34;;;;;;;;;;;;;;;10.19;50.23;98669.81;5009428;28;7144;-74
2021/01/23 16:10:59;;;;;;;;;;;;;;;10.07;50.95;98669.06;5007619;28;7276;-73
2021/01/23 16:13:25;;;;;;;;;;;;;;;10.19;50.19;98667.22;5007803;28;6836;-73
2021/01/23 16:15:50;;;;;;;;;;;;;;;10.14;50.91;98667.28;5010090;28;7917;-74
2021/01/23 16:18:16;;;;;;;;;;;;;;;10.71;50.53;98664.19;5010092;28;7089;-76
2021/01/23 16:20:41;;;;;;;;;;;;;;;11.57;48.25;98657.03;5010411;28;7293;-74
2021/01/23 16:23:08;;;;;;;;;;;;;;;11.89;48.23;98664.41;5008396;28;6986;-73
2021/01/23 16:25:34;;;;;;;;;;;;;;;11.97;48.19;98654.72;5022291;28;7094;-74
2021/01/23 16:28:00;;;;;;;;;;;;;;;12.00;48.68;98656.41;5008773;28;6813;-74
2021/01/23 16:30:26;;;;;;;;;;;;;;;12.02;48.80;98662.50;5021241;28;7041;-73
2021/01/23 16:32:52;;;;;;;;;;;;;;;11.99;48.89;98660.75;5007825;28;7540;-73
2021/01/23 16:35:17;;;;;;;;;;;;;;;12.00;48.59;98665.09;5036168;28;6798;-74
2021/01/23 16:37:43;;;;;;;;;;;;;;;11.97;49.01;98661.69;5003917;28;6945;-76
2021/01/23 16:40:09;;;;;;;;;;;;;;;11.93;48.77;98660.00;5010519;28;8554;-75
2021/01/23 16:42:34;;;;;;;;;;;;;;;11.85;48.82;98658.41;5029595;28;8562;-75
2021/01/23 16:45:00;;;;;;;;;;;;;;;11.79;48.81;98658.47;5026470;28;7543;-75
2021/01/23 16:47:25;;;;;;;;;;;;;;;11.75;49.62;98656.78;5007569;28;7329;-74
2021/01/23 16:49:51;;;;;;;;;;;;;;;11.70;49.44;98661.19;4992724;28;7277;-75
2021/01/23 16:52:17;;;;;;;;;;;;;;;11.66;49.48;98656.94;4991552;28;7328;-75
2021/01/23 16:54:43;;;;;;;;;;;;;;;11.60;50.18;98662.19;4989186;28;7213;-75
2021/01/23 16:57:09;;;;;;;;;;;;;;;11.54;50.05;98657.09;4991276;28;6948;-75
2021/01/23 16:59:35;;;;;;;;;;;;;;;11.54;49.87;98651.88;4988349;28;7131;-75
2021/01/23 17:02:01;;;;;;;;;;;;;;;11.50;49.90;98650.22;4987286;28;7520;-72
2021/01/23 17:04:26;;;;;;;;;;;;;;;11.44;50.01;98639.91;4986074;28;6985;-76
2021/01/23 17:06:52;;;;;;;;;;;;;;;11.43;50.13;98643.41;4987366;28;7908;-76
2021/01/23 17:09:18;;;;;;;;;;;;;;;11.40;50.33;98631.28;4990654;28;6862;-77
2021/01/23 17:11:43;;;;;;;;;;;;;;;11.36;50.89;98637.41;4990106;28;7087;-75
2021/01/23 17:14:09;;;;;;;;;;;;;;;11.32;50.75;98629.69;4990465;28;7190;-73
2021/01/23 17:16:34;;;;;;;;;;;;;;;11.26;51.38;98626.28;4987448;28;7278;-74
2021/01/23 17:19:00;;;;;;;;;;;;;;;11.21;51.12;98629.81;4986823;28;6851;-76
2021/01/23 17:21:25;;;;;;;;;;;;;;;11.16;51.34;98627.28;4988903;28;7112;-76
2021/01/23 17:23:51;;;;;;;;;;;;;;;11.16;51.32;98624.69;4989714;28;6992;-75
2021/01/23 17:26:20;;;;;;;;;;;;;;;11.12;51.48;98616.97;4991164;28;6799;-75
2021/01/23 17:28:45;;;;;;;;;;;;;;;11.09;51.60;98619.59;4990794;28;6948;-77
2021/01/23 17:31:11;;;;;;;;;;;;;;;11.04;52.13;98619.66;4991296;28;6854;-77
2021/01/23 17:33:39;;;;;;;;;;;;;;;11.01;51.89;98616.22;4990681;28;7262;-74
2021/01/23 17:36:08;;;;;;;;;;;;;;;10.97;52.39;98612.81;4986627;28;7109;-75
2021/01/23 17:38:34;;;;;;;;;;;;;;;10.93;52.12;98614.59;4985685;28;7207;-75
2021/01/23 17:41:00;;;;;;;;;;;;;;;10.88;52.11;98615.53;5004962;28;7209;-75
2021/01/23 17:43:25;;;;;;;;;;;;;;;10.85;52.65;98613.84;4990051;28;7425;-75
2021/01/23 17:45:51;;;;;;;;;;;;;;;10.81;52.66;98614.75;4988964;28;7964;-74
2021/01/23 17:48:16;;;;;;;;;;;;;;;10.78;52.60;98616.50;5003423;28;6780;-75
2021/01/23 17:50:42;;;;;;;;;;;;;;;10.73;52.67;98608.78;4988326;28;7110;-75
2021/01/23 17:53:09;;;;;;;;;;;;;;;10.68;52.87;98605.38;5005447;28;7354;-75
2021/01/23 17:55:35;;;;;;;;;;;;;;;10.67;53.13;98606.25;4988680;28;6891;-75
2021/01/23 17:58:01;;;;;;;;;;;;;;;10.62;52.91;98600.28;4987822;28;6880;-76
2021/01/23 18:00:26;;;;;;;;;;;;;;;10.58;53.31;98599.41;4984881;28;7840;-75
2021/01/23 18:02:52;;;;;;;;;;;;;;;10.55;52.73;98602.06;4986724;28;7473;-76
2021/01/23 18:05:18;;;;;;;;;;;;;;;10.52;53.51;98596.03;4990876;28;7426;-76
2021/01/23 18:07:43;;;;;;;;;;;;;;;10.51;53.39;98592.59;5002722;28;6871;-75
2021/01/23 18:10:10;;;;;;;;;;;;;;;10.45;53.97;98602.19;4989149;28;7213;-75
2021/01/23 18:12:35;;;;;;;;;;;;;;;10.44;53.58;98598.72;4991056;28;6827;-76
2021/01/23 18:15:02;;;;;;;;;;;;;;;10.39;53.46;98597.91;4986972;28;6815;-76
2021/01/23 18:17:28;;;;;;;;;;;;;;;10.33;53.87;98604.00;5001495;28;7437;-76
2021/01/23 18:19:53;;;;;;;;;;;;;;;10.35;53.60;98593.63;4989954;28;7070;-75
2021/01/23 18:22:19;;;;;;;;;;;;;;;10.30;53.71;98598.88;4989605;28;7317;-76
2021/01/23 18:24:44;;;;;;;;;;;;;;;10.25;53.70;98594.59;4990731;28;6799;-76
2021/01/23 18:27:10;;;;;;;;;;;;;;;10.24;54.18;98592.88;4987983;28;7201;-76
2021/01/23 18:29:35;;;;;;;;;;;;;;;10.18;53.85;98591.16;4987812;28;6792;-75
2021/01/23 18:32:01;;;;;;;;;;;;;;;10.17;54.56;98592.03;4988819;28;6856;-75
2021/01/23 18:34:27;;;;;;;;;;;;;;;10.12;54.13;98580.84;4990478;28;6843;-75
2021/01/23 18:36:52;;;;;;;;;;;;;;;10.13;54.38;98582.56;4986903;28;7908;-75
2021/01/23 18:39:18;;;;;;;;;;;;;;;10.10;54.34;98573.97;4985070;28;6815;-75
2021/01/23 18:41:46;;;;;;;;;;;;;;;10.07;54.39;98577.44;4998900;28;6788;-74
2021/01/23 18:44:12;;;;;;;;;;;;;;;10.03;54.84;98573.16;5004152;28;6945;-76
2021/01/23 18:46:37;;;;;;;;;;;;;;;10.02;54.72;98568.88;4987915;28;6783;-75
2021/01/23 18:49:07;;;;;;;;;;;;;;;10.02;54.44;98559.34;4986467;28;7145;-75
2021/01/23 18:51:36;;;;;;;;;;;;;;;9.95;54.71;98568.03;5002887;28;7238;-75
2021/01/23 18:54:02;;;;;;;;;;;;;;;9.91;54.93;98566.34;4987718;28;6847;-74
2021/01/23 18:56:28;;;;;;;;;;;;;;;9.91;55.00;98557.72;4987491;28;7277;-74
2021/01/23 18:58:53;;;;;;;;;;;;;;;9.89;54.87;98570.69;5003588;28;6780;-75
2021/01/23 19:01:19;;;;;;;;;;;;;;;9.88;55.29;98573.31;5016259;28;6808;-75
2021/01/23 19:03:44;;;;;;;;;;;;;;;9.83;55.28;98568.16;4988467;28;7175;-74
2021/01/23 19:06:10;;;;;;;;;;;;;;;9.82;55.23;98566.44;4984858;28;7291;-74
2021/01/23 19:08:36;;;;;;;;;;;;;;;9.80;55.04;98567.31;4986684;28;6800;-73
2021/01/23 19:11:01;;;;;;;;;;;;;;;9.79;54.94;98563.84;4986007;28;7194;-75
2021/01/23 19:13:27;;;;;;;;;;;;;;;9.74;55.46;98560.44;5002105;28;7347;-74
2021/01/23 19:15:52;;;;;;;;;;;;;;;9.70;55.31;98564.81;4992874;28;6779;-74
2021/01/23 19:18:22;;;;;;;;;;;;;;;9.68;55.61;98560.50;4991853;28;7219;-73
2021/01/23 19:20:48;;;;;;;;;;;;;;;9.68;55.54;98556.19;4991937;28;11170;-75
2021/01/23 19:23:13;;;;;;;;;;;;;;;9.65;55.73;98563.13;4988855;28;6776;-74
2021/01/23 19:25:39;;;;;;;;;;;;;;;9.61;55.83;98559.72;4990308;28;7623;-75
2021/01/23 19:28:04;;;;;;;;;;;;;;;9.60;55.66;98557.97;4996590;28;6794;-76
2021/01/23 19:30:30;;;;;;;;;;;;;;;9.57;55.97;98562.31;4992651;28;8017;-75
2021/01/23 19:32:56;;;;;;;;;;;;;;;9.58;55.72;98561.44;4992709;28;6818;-75
2021/01/23 19:35:21;;;;;;;;;;;;;;;9.56;55.89;98565.78;4989799;28;6807;-75
2021/01/23 19:37:47;;;;;;;;;;;;;;;9.52;56.08;98559.75;4989719;28;7046;-76
2021/01/23 19:40:13;;;;;;;;;;;;;;;9.46;55.91;98562.41;5006840;28;7299;-75
2021/01/23 19:42:40;;;;;;;;;;;;;;;9.45;56.10;98558.09;4991772;28;6821;-76
2021/01/23 19:45:06;;;;;;;;;;;;;;;9.41;56.24;98562.44;4988564;28;6883;-76
2021/01/23 19:47:31;;;;;;;;;;;;;;;9.40;56.14;98565.88;4992205;28;6809;-75
2021/01/23 19:49:57;;;;;;;;;;;;;;;9.42;56.20;98563.31;4994051;28;7553;-76
2021/01/23 19:52:23;;;;;;;;;;;;;;;9.41;56.24;98567.63;4994037;28;6784;-75
2021/01/23 19:54:48;;;;;;;;;;;;;;;9.37;56.83;98576.28;4990530;28;11189;-75
2021/01/23 19:57:14;;;;;;;;;;;;;;;9.34;56.68;98572.84;4990762;28;6940;-75
2021/01/23 19:59:39;;;;;;;;;;;;;;;9.30;56.91;98564.25;5005153;28;7089;-76
2021/01/23 20:02:05;;;;;;;;;;;;;;;9.28;56.88;98563.41;4992537;28;6933;-76
2021/01/23 20:04:30;;;;;;;;;;;;;;;9.27;56.41;98564.25;4986538;28;7356;-76
2021/01/23 20:06:56;;;;;;;;;;;;;;;9.28;56.95;98565.13;4991499;28;7250;-76
2021/01/23 20:09:23;;;;;;;;;;;;;;;9.27;56.53;98566.00;4999727;28;6879;-75
2021/01/23 20:11:49;;;;;;;;;;;;;;;9.24;56.66;98558.25;4988340;28;11025;-76
2021/01/23 20:14:14;;;;;;;;;;;;;;;9.20;56.82;98557.38;4989846;28;6855;-75
2021/01/23 20:16:41;;;;;;;;;;;;;;;9.19;56.94;98558.25;4997688;28;7324;-76
2021/01/23 20:19:06;;;;;;;;;;;;;;;9.18;57.00;98547.91;5001907;28;6985;-75
2021/01/23 20:21:33;;;;;;;;;;;;;;;9.19;57.21;98547.91;4993837;28;6881;-75
2021/01/23 20:23:58;;;;;;;;;;;;;;;9.18;57.23;98547.91;4985896;28;7420;-75
2021/01/23 20:26:26;;;;;;;;;;;;;;;9.14;57.03;98544.50;4998645;28;7840;-75
2021/01/23 20:28:52;;;;;;;;;;;;;;;9.11;57.17;98536.75;4987739;28;6809;-75
2021/01/23 20:31:17;;;;;;;;;;;;;;;9.09;57.54;98538.47;4987539;28;7428;-75
2021/01/23 20:33:43;;;;;;;;;;;;;;;9.09;57.73;98535.91;4988641;28;7757;-76
2021/01/23 20:36:09;;;;;;;;;;;;;;;9.05;57.50;98536.78;4987810;28;6817;-76
2021/01/23 20:38:36;;;;;;;;;;;;;;;9.04;57.56;98535.06;4988928;28;7323;-76
2021/01/23 20:41:01;;;;;;;;;;;;;;;9.01;57.95;98535.06;4991749;28;6860;-76
2021/01/23 20:43:27;;;;;;;;;;;;;;;9.00;57.83;98533.34;5005708;28;7394;-76
2021/01/23 20:45:53;;;;;;;;;;;;;;;8.97;57.91;98525.59;4991801;28;7499;-76
2021/01/23 20:48:19;;;;;;;;;;;;;;;8.97;57.59;98530.78;4982099;28;8782;-75
2021/01/23 20:50:45;;;;;;;;;;;;;;;8.94;57.74;98518.72;4992320;28;7065;-75
2021/01/23 20:53:11;;;;;;;;;;;;;;;8.93;57.61;98517.00;4991881;28;6861;-76
2021/01/23 20:55:36;;;;;;;;;;;;;;;8.87;58.42;98511.00;4999014;28;6791;-75
2021/01/23 20:58:02;;;;;;;;;;;;;;;8.89;57.79;98512.72;5026418;28;6795;-74
2021/01/23 21:00:27;;;;;;;;;;;;;;;8.90;58.30;98505.81;5025513;28;7303;-76
2021/01/23 21:02:54;;;;;;;;;;;;;;;8.87;58.03;98505.84;5027144;28;7443;-76
2021/01/23 21:05:19;;;;;;;;;;;;;;;8.86;58.39;98504.97;5008471;28;11113;-75
2021/01/23 21:07:45;;;;;;;;;;;;;;;8.82;58.26;98504.13;5009337;28;7122;-75
2021/01/23 21:10:10;;;;;;;;;;;;;;;8.80;58.59;98499.81;5006418;28;7169;-75
2021/01/23 21:12:36;;;;;;;;;;;;;;;8.81;58.06;98496.38;5005266;28;7536;-77
2021/01/23 21:15:03;;;;;;;;;;;;;;;8.79;58.48;98493.78;5023530;28;7086;-77
2021/01/23 21:17:28;;;;;;;;;;;;;;;8.79;58.43;98498.09;5009169;28;7615;-77
2021/01/23 21:19:54;;;;;;;;;;;;;;;8.77;58.29;98492.94;5009356;28;6790;-75
2021/01/23 21:22:19;;;;;;;;;;;;;;;8.76;58.67;98495.53;5023833;28;11730;-75
2021/01/23 21:24:45;;;;;;;;;;;;;;;8.76;58.52;98488.63;5007813;28;7159;-75
2021/01/23 21:27:10;;;;;;;;;;;;;;;8.71;58.29;98485.22;5025167;28;7281;-76
2021/01/23 21:29:36;;;;;;;;;;;;;;;8.67;58.96;98478.34;5009581;28;6834;-75
2021/01/23 21:32:02;;;;;;;;;;;;;;;8.64;58.55;98473.19;5024430;28;7431;-75
2021/01/23 21:34:28;;;;;;;;;;;;;;;8.64;58.54;98470.59;5007544;28;6817;-76
2021/01/23 21:36:53;;;;;;;;;;;;;;;8.63;59.02;98471.47;5032233;28;7062;-75
2021/01/23 21:39:19;;;;;;;;;;;;;;;8.61;59.05;98478.38;5007933;28;6954;-74
2021/01/23 21:41:46;;;;;;;;;;;;;;;8.61;58.89;98464.56;5004845;28;6792;-77
2021/01/23 21:44:11;;;;;;;;;;;;;;;8.57;59.01;98465.44;5021702;28;7104;-75
2021/01/23 21:46:37;;;;;;;;;;;;;;;8.58;59.08;98464.56;5007515;28;6914;-78
2021/01/23 21:49:03;;;;;;;;;;;;;;;8.54;59.07;98456.84;5007157;28;7150;-77
2021/01/23 21:51:28;;;;;;;;;;;;;;;8.54;59.02;98462.00;5008120;28;7230;-77
2021/01/23 21:53:54;;;;;;;;;;;;;;;8.50;59.36;98459.47;5009874;28;7332;-76
2021/01/23 21:56:19;;;;;;;;;;;;;;;8.50;59.38;98451.69;5009556;28;7779;-77
2021/01/23 21:58:45;;;;;;;;;;;;;;;8.48;59.15;98456.03;5010225;28;7058;-76
2021/01/23 22:01:10;;;;;;;;;;;;;;;8.45;59.17;98443.09;5008772;28;7260;-77
2021/01/23 22:03:36;;;;;;;;;;;;;;;8.43;59.48;98444.84;5009840;28;7197;-76
2021/01/23 22:06:02;;;;;;;;;;;;;;;8.43;59.17;98442.25;5007806;28;7301;-77
2021/01/23 22:08:28;;;;;;;;;;;;;;;8.42;59.21;98436.22;5010910;28;6954;-76
2021/01/23 22:10:54;;;;;;;;;;;;;;;8.39;59.29;98435.34;5006409;28;7121;-75
2021/01/23 22:13:19;;;;;;;;;;;;;;;8.38;59.58;98439.69;5033310;28;7062;-77
2021/01/23 22:15:45;;;;;;;;;;;;;;;8.35;59.18;98434.53;5006399;28;6831;-76
2021/01/23 22:18:10;;;;;;;;;;;;;;;8.33;59.59;98435.38;5004459;28;7478;-75
2021/01/23 22:20:36;;;;;;;;;;;;;;;8.31;59.53;98435.38;5006667;28;7439;-76
2021/01/23 22:23:02;;;;;;;;;;;;;;;8.30;59.67;98435.38;5021141;28;7034;-77
2021/01/23 22:25:28;;;;;;;;;;;;;;;8.29;59.70;98434.53;5029645;28;6803;-76
2021/01/23 22:27:53;;;;;;;;;;;;;;;8.32;59.51;98436.22;5004055;28;7669;-76
2021/01/23 22:30:19;;;;;;;;;;;;;;;8.30;59.34;98433.66;5005337;28;6809;-77
2021/01/23 22:32:45;;;;;;;;;;;;;;;8.24;59.91;98433.69;5009959;28;7257;-76
2021/01/23 22:35:10;;;;;;;;;;;;;;;8.21;59.75;98426.81;5003289;28;6792;-76
2021/01/23 22:37:36;;;;;;;;;;;;;;;8.21;59.90;98432.00;5004244;28;7681;-77
2021/01/23 22:40:04;;;;;;;;;;;;;;;8.20;59.75;98430.25;5008570;28;6779;-77
2021/01/23 22:42:30;;;;;;;;;;;;;;;8.17;59.83;98425.09;5024312;28;7113;-76
2021/01/23 22:44:55;;;;;;;;;;;;;;;8.17;59.79;98426.81;5008416;28;7615;-77
2021/01/23 22:47:21;;;;;;;;;;;;;;;8.13;59.78;98425.13;5008772;28;12541;-76
2021/01/23 22:49:46;;;;;;;;;;;;;;;8.10;60.25;98420.81;5008365;28;6872;-78
2021/01/23 22:52:12;;;;;;;;;;;;;;;8.14;60.32;98421.66;5008080;28;7099;-78
2021/01/23 22:54:39;;;;;;;;;;;;;;;8.11;60.18;98414.78;4997948;28;6928;-77
2021/01/23 22:57:04;;;;;;;;;;;;;;;8.10;59.92;98412.22;5009345;28;7152;-76
2021/01/23 22:59:30;;;;;;;;;;;;;;;8.06;60.13;98407.91;5012575;28;7952;-77
2021/01/23 23:01:56;;;;;;;;;;;;;;;8.07;60.19;98407.91;5035143;28;7145;-75
2021/01/23 23:04:21;;;;;;;;;;;;;;;8.07;60.24;98412.22;5027105;28;11067;-76
2021/01/23 23:06:47;;;;;;;;;;;;;;;8.04;60.10;98404.50;5011346;28;7364;-76
2021/01/23 23:09:12;;;;;;;;;;;;;;;8.03;60.18;98411.38;5010791;28;7341;-75
2021/01/23 23:11:38;;;;;;;;;;;;;;;8.02;60.05;98401.06;5006965;28;6808;-75
2021/01/23 23:14:03;;;;;;;;;;;;;;;8.00;60.26;98402.75;5009653;28;7134;-75
2021/01/23 23:16:29;;;;;;;;;;;;;;;7.99;60.34;98396.72;5010154;28;6980;-77
2021/01/23 23:18:54;;;;;;;;;;;;;;;7.97;60.37;98392.44;5010241;28;7074;-77
2021/01/23 23:21:20;;;;;;;;;;;;;;;7.95;60.47;98397.63;5007890;28;6800;-76
2021/01/23 23:23:46;;;;;;;;;;;;;;;7.92;60.38;98392.47;5008443;28;7109;-76
2021/01/23 23:26:11;;;;;;;;;;;;;;;7.91;60.73;98393.31;5012725;28;6810;-77
2021/01/23 23:28:40;;;;;;;;;;;;;;;7.92;60.41;98393.31;5027236;28;6823;-77
2021/01/23 23:31:06;;;;;;;;;;;;;;;7.89;60.88;98388.16;5008409;28;7002;-77
2021/01/23 23:33:32;;;;;;;;;;;;;;;7.90;60.49;98389.88;5036373;28;6807;-77
2021/01/23 23:35:57;;;;;;;;;;;;;;;7.87;60.49;98391.63;5024577;28;8380;-77
2021/01/23 23:38:23;;;;;;;;;;;;;;;7.87;60.63;98389.03;5020505;28;7110;-76
2021/01/23 23:40:49;;;;;;;;;;;;;;;7.86;60.53;98387.31;5008833;28;8311;-76
2021/01/23 23:43:14;;;;;;;;;;;;;;;7.85;60.89;98388.19;5019214;28;8461;-76
2021/01/23 23:45:40;;;;;;;;;;;;;;;7.81;60.65;98384.75;5008163;28;7320;-77
2021/01/23 23:48:09;;;;;;;;;;;;;;;7.81;60.66;98387.34;5035368;28;6787;-77
2021/01/23 23:50:39;;;;;;;;;;;;;;;7.81;60.54;98386.50;5007897;28;6815;-76
2021/01/23 23:53:08;;;;;;;;;;;;;;;7.80;60.98;98382.16;5007418;28;6824;-77
2021/01/23 23:55:33;;;;;;;;;;;;;;;7.81;60.77;98389.06;5010101;28;7194;-76
2021/01/23 23:57:59;;;;;;;;;;;;;;;7.80;60.46;98389.91;5010722;28;7212;-75
